MDTHARRISBURG INTL
METARs for airports near MDT, sorted by distance:
N 0 nm 310' KMDT 142256Z 14009KT 10SM SCT095 32/22 A2993
W 4 nm 346' KCXY 142256Z 12011KT 10SM SCT095 33/21 A2994
NE 17 nm 487' KMUI 142255Z 10004KT 10SM CLR 31/21 A2995
S 17 nm 494' KTHV 142253Z VRB04KT 10SM CLR 33/21 A2995
E 21 nm 402' KLNS 142253Z 17007KT 10SM CLR 31/22 A2996
NE 35 nm 1729' KZER 142315Z 12005KT 7SM CLR 26/21 A3005
S 36 nm 789' KDMW 142320Z 18003KT 10SM CLR 36/18 A2997
N 38 nm 463' KSEG 142253Z 00000KT 10SM CLR 32/18 A2994
E 38 nm 343' KRDG 142254Z 15004KT 10SM CLR 31/22 A2995
E 43 nm 660' KMQS 142335Z 00000KT 10SM CLR 27/27 A2999
NW 49 nm 818' KRVL 142335Z 00000KT 10SM FEW080 29/20 A2996
SE 51 nm 44' KAPG 122034Z VRB05KT 7SM -RA SCT030 OVC050 26/22 A3014
SW 53 nm 703' KHGR 142253Z 16005KT 10SM CLR 35/18 A2995
SW 54 nm 308' KFDK 142247Z 18005KT 10SM CLR 36/17 A2994
S 54 nm 21' KMTN 142255Z 15005KT 10SM CLR 30/23 A2996
E 55 nm 308' KPTW 122254Z 00000KT 9SM -RA FEW035 BKN090 OVC120 26/22 A3018
E 55 nm 464' KOQN 142335Z 15003KT 10SM CLR 27/23 A2998
NE 59 nm 1603' KHZL 142335Z 00000KT CLR 25/21 A3005
S 61 nm 143' KBWI 142254Z 16007KT 10SM FEW065 FEW250 32/22 A2994
SE 61 nm 79' KILG 142251Z 10006KT 10SM CLR 29/23 A2996
E 62 nm 399' KXLL 142315Z 20005KT 10SM CLR 29/22 A2997
NW 63 nm 1231' KUNV 142253Z 30005KT 10SM BKN070 31/16 A2999
N 63 nm 528' KIPT 142254Z 20005KT 10SM CLR 33/16 A2993
S 64 nm 538' KGAI 142256Z 20006KT 10SM CLR A2997
E 64 nm 525' KUKT 142335Z 00000KT 10SM CLR 28/23 A2998
NE 66 nm 393' KABE 142251Z 24007KT 10SM CLR 29/21 A2996
S 66 nm 150' KFME 142329Z 14005KT 10SM CLR 30/23 A2997
E 68 nm 567' KCKZ 142335Z 00000KT 10SM CLR 27/23 A2998
E 68 nm 301' KLOM 142315Z 00000KT 10SM BKN095 27/24 A2997
W 71 nm 1503' KAOO 142253Z 28005KT 10SM OVC100 31/14 A3001
E 72 nm 35' KPHL 142254Z 00000KT 10SM FEW030 SCT250 29/23 A2996
S 73 nm 48' KCGS 142325Z 12007KT 090V150 10SM CLR 33/23 A2995
SW 73 nm 564' KMRB 142253Z 28008KT 10SM SCT110 35/13 A2993
E 75 nm 393' KDYL 142254Z 24003KT 10SM CLR 29/21 A2997
SW 76 nm 389' KJYO 142335Z 22004KT 10SM CLR 34/21 A2996
W 80 nm 1161' KHMZ 142315Z 27007KT 10SM CLR 32/11 A2999
E 80 nm 119' KPNE 142254Z 29005KT 10SM CLR 29/21 A2997
SW 81 nm 312' KIAD 142252Z 20008KT 10SM FEW090 FEW250 34/18 A2994
S 81 nm 14' KDCA 142252Z 21009KT 10SM FEW080 FEW250 36/16 A2993
S 83 nm 279' KADW 142255Z 13007KT 10SM CLR 32/23 A2993
NE 83 nm 961' KAVP 142254Z 23008KT 9SM CLR 32/18 A2997
NE 84 nm 1915' KMPO 142253Z 23009KT 10SM 28/16 A3004
SE 87 nm 28' KDOV 142255Z 19009KT 10SM CLR 31/21 A2994
E 89 nm 52' KVAY 142254Z VRB04KT 10SM CLR 27/23 A2996
S 89 nm 72' KESN 142245Z 17006KT 10SM CLR 31/23 A2997
E 89 nm 212' KTTN 142253Z 32003KT 10SM CLR 28/21 A2995
SW 89 nm 726' KOKV 142335Z 18005KT 10SM OVC090 32/18 A2996
S 90 nm 73' KDAA 142255Z 15005KT 10SM CLR 35/19 A2992
NW 91 nm 1516' KFIG 142254Z 31004KT 10SM FEW120 30/17 A3001
SE 92 nm 84' KMIV 142254Z VRB06KT 10SM CLR 28/21 A2997
TAFs for airports near MDT, sorted by distance:
N 0 nm 310' KMDT KMDT 142127Z 1421/1518 27005KT P6SM SCT040
  FM150000 15003KT 6SM BR SCT120
  FM150800 VRB03KT 4SM BR BKN250
  FM151300 28007KT P6SM SCT250
NE 17 nm 487' KMUI TAF KMUI 121900Z 1219/1401 VRB06KT 8000 -SHRA SCT050 BKN070 QNH3014INS
  BECMG 1301/1302 VRB06KT 8000 -SHRA BKN025 QNH3017INS
  BECMG 1303/1304 VRB06KT 4800 -SHRA BKN010 OVC050 QNH3014INS
  TEMPO 1304/1306 22015G25KT 3200 -TSRA BKN006CB OVC050
  BECMG 1306/1307 VRB06KT 8000 BR OVC006 QNH3016INS
  BECMG 1313/1314 VRB06KT 8000 BR OVC050 QNH3009INS TX26/1219Z TN20/1311Z
E 21 nm 402' KLNS KLNS 142127Z 1421/1518 16006KT P6SM SCT070
  FM150200 15003KT 6SM BR SCT120
  FM150800 VRB03KT 4SM BR BKN250
  FM151300 28007KT P6SM SCT250
E 38 nm 343' KRDG TAF KRDG 141720Z 1418/1518 24005KT P6SM SCT040
  TEMPO 1418/1419 3SM TSRA BKN030CB
  FM142300 VRB03KT P6SM FEW100
  FM151500 26007KT P6SM FEW070
S 54 nm 21' KMTN KMTN 142001Z 1420/1518 15012G20KT P6SM FEW250
  FM150000 20005KT P6SM FEW250
  FM150400 17005KT P6SM FEW250
  FM151600 21005KT P6SM FEW200
S 61 nm 143' KBWI TAF
  AMD KBWI 142102Z 1421/1524 18009G15KT P6SM VCTS SCT060CB SCT250
  FM142300 20004KT P6SM FEW200
  FM150500 17004KT P6SM FEW250
  FM151600 25005KT P6SM FEW200
SE 61 nm 79' KILG TAF KILG 141720Z 1418/1518 16008KT P6SM SCT040
  TEMPO 1418/1421 VRB20G30KT 3SM TSRA BKN040CB
  FM150100 18005KT P6SM FEW100
  FM151500 24006KT P6SM FEW060
NW 63 nm 1231' KUNV KUNV 142127Z 1421/1518 28006KT P6SM SCT080
  FM150300 00000KT P6SM BKN090
  FM151400 25008KT P6SM SCT050 BKN250
N 63 nm 528' KIPT KIPT 142127Z 1421/1518 25007KT P6SM FEW080
  FM150200 00000KT P6SM BKN100
  FM151400 25007KT P6SM SCT050 BKN250
NE 66 nm 393' KABE TAF KABE 141720Z 1418/1518 VRB05KT P6SM SCT060
  FM142300 VRB02KT P6SM FEW100
  FM151500 26007KT P6SM FEW070
W 71 nm 1503' KAOO TAF
  AMD KAOO 142127Z 1421/1518 26005KT P6SM SCT080
  FM150400 00000KT P6SM BKN090
  FM151400 25008KT P6SM SCT050 BKN250
E 72 nm 35' KPHL TAF
  AMD KPHL 142052Z 1421/1524 VRB20G30KT 6SM -TSRA BKN050CB
  FM142115 19010KT P6SM SCT060
  FM150200 20007KT P6SM FEW100
  FM151400 26008KT P6SM FEW070
SW 73 nm 564' KMRB KMRB 141727Z 1418/1518 25006KT P6SM FEW250
  FM142300 21005KT P6SM FEW250
  FM150300 17004KT P6SM FEW250
  FM151000 23005KT P6SM FEW200
  FM151400 28004KT P6SM FEW200
E 80 nm 119' KPNE KPNE 142059Z 1421/1518 VRB12G20KT P6SM VCTS BKN050CB
  FM142115 14008KT P6SM SCT060
  FM150100 VRB03KT P6SM FEW100
  FM151500 24005KT P6SM SCT060
SW 81 nm 312' KIAD KIAD 142102Z 1421/1524 23009KT P6SM FEW250
  FM142300 21005KT P6SM FEW250
  FM150300 18004KT P6SM FEW250
  FM151600 26005KT P6SM FEW250
S 81 nm 14' KDCA KDCA 142102Z 1421/1524 21008G16KT P6SM VCTS SCT060CB SCT250
  FM142200 08008G16KT P6SM FEW200
  FM150500 17005KT P6SM FEW200
  FM151600 26005KT P6SM FEW200
S 83 nm 279' KADW TAF
  AMD KADW 141910Z 1419/1523 27012KT 9999 VCTS SCT050CB QNH2997INS
  TEMPO 1419/1421 29012G18KT 8000 -TSRA BKN050CB
  BECMG 1420/1421 22006KT 9999 NSW SCT050 QNH2994INS
  BECMG 1500/1501 17006KT 9999 FEW070 QNH2992INS
  BECMG 1506/1507 26006KT 9999 SCT060 SCT250 QNH2986INS
  BECMG 1518/1519 23012KT 9999 -SHRA VCTS BKN040CB QNH2983INS TX38/1419Z TN23/1509Z
NE 83 nm 961' KAVP KAVP 141728Z 1418/1518 26008KT P6SM SCT060
  FM150200 13003KT P6SM SCT060
SE 87 nm 28' KDOV TAF KDOV 141600Z 1416/1522 18006KT 9999 SCT095 QNH3005INS
  BECMG 1417/1418 22006KT 9999 BKN100 QNH2997INS
  TEMPO 1418/1422 9000 -SHRA
  BECMG 1502/1503 23009KT 9999 SCT080 QNH2993INS TX33/1420Z TN24/1510Z
E 89 nm 212' KTTN TAF KTTN 141720Z 1418/1518 24006KT P6SM SCT050
  TEMPO 1418/1421 VRB20G30KT 3SM -TSRA BKN050CB
  FM150100 VRB03KT P6SM FEW100
  FM151500 24005KT P6SM SCT060
S 90 nm 73' KDAA TAF KDAA 121200Z 1212/1318 VRB05KT 9999 VCSH SCT030 BKN060 OVC100 QNH2996INS
  BECMG 1212/1213 03006KT 9000 -SHRA FEW015 BKN030 OVC070 QNH3000INS
  BECMG 1213/1214 04007KT 8000 -SHRA VCTS SCT015CB OVC030 QNH3011INS
  TEMPO 1214/1301 VRB12G20KT 4800 TSRA BR SCT008 OVC015CB
  BECMG 1302/1303 VRB06KT 9000 -RA OVC010 QNH3010INS
  BECMG 1306/1307 VRB05KT 4800 -RA BR OVC008 QNH3011INS
  BECMG 1312/1313 16007KT 8000 -SHRA VCTS SCT009 BKN015CB OVC030 QNH3012INS TX27/1220Z TN24/1310Z
SE 92 nm 84' KMIV TAF KMIV 141720Z 1418/1518 20008KT P6SM SCT040
  FM142300 VRB02KT P6SM SCT100
  FM151500 24006KT P6SM FEW050

Shortcut to this page: http://wxbay.com.

Data may contain errors.